Time;durP1;ratioP1;P1;durP2;ratioP2;P2;SDS_P1;SDS_P2;PMS_P1;PMS_P2;Temp;Humidity;BMP_temperature;BMP_pressure;BME280_temperature;BME280_humidity;BME280_pressure;Samples;Min_cycle;Max_cycle;Signal;HPM_P1;HPM_P2
2023/10/09 00:01:01;;;;;;;0.20;0.20;;;14.20;99.90;;;;;;5012369;28;20110;-73
2023/10/09 00:03:27;;;;;;;0.10;0.10;;;14.20;99.90;;;;;;5010031;28;20033;-72
2023/10/09 00:05:54;;;;;;;0.20;0.20;;;14.30;99.90;;;;;;5006826;28;20525;-73
2023/10/09 00:08:32;;;;;;;0.17;0.17;;;14.20;99.90;;;;;;5016039;28;20034;-73
2023/10/09 00:11:15;;;;;;;0.10;0.10;;;14.20;99.90;;;;;;5029568;28;20570;-72
2023/10/09 00:13:57;;;;;;;0.20;0.20;;;14.20;99.90;;;;;;5011645;28;20117;-73
2023/10/09 00:16:34;;;;;;;0.10;0.10;;;14.10;99.90;;;;;;5016699;28;20473;-72
2023/10/09 00:19:14;;;;;;;0.20;0.20;;;14.20;99.90;;;;;;5012234;28;20448;-73
2023/10/09 00:21:41;;;;;;;0.10;0.10;;;14.20;99.90;;;;;;5012150;28;20064;-72
2023/10/09 00:24:13;;;;;;;0.10;0.10;;;14.20;99.90;;;;;;5011526;28;20052;-73
2023/10/09 00:26:48;;;;;;;0.20;0.20;;;14.30;99.90;;;;;;5009815;28;20052;-73
2023/10/09 00:29:21;;;;;;;0.20;0.20;;;14.20;99.90;;;;;;5010440;28;20060;-73
2023/10/09 00:32:03;;;;;;;0.10;0.10;;;14.30;99.90;;;;;;5010046;28;20053;-73
2023/10/09 00:34:29;;;;;;;0.10;0.10;;;14.30;99.90;;;;;;5008865;28;20082;-73
2023/10/09 00:36:57;;;;;;;0.20;0.20;;;14.20;99.90;;;;;;5008130;28;20053;-72
2023/10/09 00:40:28;;;;;;;0.15;0.15;;;14.30;99.90;;;;;;5010195;28;20053;-72
2023/10/09 00:42:32;;;;;;;0.10;0.10;;;14.20;99.90;;;;;;4992035;28;20148;-73
2023/10/09 00:45:07;;;;;;;0.20;0.20;;;14.30;99.90;;;;;;5010972;28;20054;-73
2023/10/09 00:47:34;;;;;;;0.10;0.10;;;14.30;99.90;;;;;;5009403;28;20436;-72
2023/10/09 00:50:10;;;;;;;0.10;0.10;;;14.20;99.90;;;;;;5009288;28;20091;-73
2023/10/09 00:52:49;;;;;;;0.20;0.20;;;14.20;99.90;;;;;;5008691;28;20061;-72
2023/10/09 00:55:21;;;;;;;0.10;0.10;;;14.30;99.90;;;;;;5011861;28;20033;-72
2023/10/09 00:57:50;;;;;;;0.10;0.10;;;14.30;99.90;;;;;;5009668;28;20052;-73
2023/10/09 01:00:32;;;;;;;0.20;0.20;;;14.30;99.90;;;;;;5011246;28;20045;-73
2023/10/09 01:03:40;;;;;;;0.10;0.10;;;14.30;99.90;;;;;;5010028;28;20103;-73
2023/10/09 01:11:32;;;;;;;0.13;0.13;;;14.30;99.90;;;;;;5007158;28;20087;-73
2023/10/09 01:14:11;;;;;;;0.10;0.10;;;14.30;99.90;;;;;;5008690;28;20671;-73
2023/10/09 01:16:41;;;;;;;0.10;0.10;;;14.30;99.90;;;;;;5006684;28;20056;-73
2023/10/09 01:19:12;;;;;;;0.10;0.10;;;14.30;99.90;;;;;;5008211;28;20064;-72
2023/10/09 01:21:39;;;;;;;;;;;14.30;99.90;;;;;;5010059;28;20053;-72
2023/10/09 01:24:08;;;;;;;0.15;0.15;;;14.40;99.90;;;;;;5025803;28;19921;-73
2023/10/09 01:26:49;;;;;;;0.10;0.10;;;14.30;99.90;;;;;;5008659;28;20041;-72
2023/10/09 01:29:20;;;;;;;0.10;0.10;;;14.30;99.90;;;;;;5009301;28;20041;-73
2023/10/09 01:32:06;;;;;;;0.20;0.20;;;14.40;99.90;;;;;;5013503;28;20612;-73
2023/10/09 01:35:14;;;;;;;0.20;0.20;;;14.40;99.90;;;;;;5005244;28;20437;-72
2023/10/09 01:39:58;;;;;;;0.20;0.20;;;14.30;99.90;;;;;;5011196;28;20049;-72
2023/10/09 01:44:58;;;;;;;0.10;0.10;;;14.40;99.90;;;;;;5010202;28;20053;-72
2023/10/09 01:47:25;;;;;;;0.20;0.20;;;14.30;99.90;;;;;;5010898;28;20100;-73
2023/10/09 01:49:52;;;;;;;0.20;0.20;;;14.30;99.90;;;;;;5015674;28;20050;-73
2023/10/09 01:52:18;;;;;;;0.20;0.20;;;14.30;99.90;;;;;;5008006;28;20053;-73
2023/10/09 01:54:49;;;;;;;0.10;0.10;;;14.30;99.90;;;;;;5009745;28;20056;-73
2023/10/09 01:57:15;;;;;;;0.20;0.20;;;14.30;99.90;;;;;;5009145;28;20107;-73
2023/10/09 01:59:49;;;;;;;0.20;0.20;;;14.30;99.90;;;;;;5009712;28;20099;-73
2023/10/09 02:02:31;;;;;;;0.20;0.20;;;14.30;99.90;;;;;;5008368;28;20045;-73
2023/10/09 02:07:44;;;;;;;0.10;0.10;;;14.30;99.90;;;;;;5010537;28;20053;-72
2023/10/09 02:13:06;;;;;;;0.20;0.20;;;14.30;99.90;;;;;;5007128;28;20053;-73
2023/10/09 02:26:19;;;;;;;0.10;0.10;;;14.30;99.90;;;;;;5027440;28;20107;-73
2023/10/09 02:28:52;;;;;;;0.10;0.10;;;14.30;99.90;;;;;;5011173;28;20072;-73
2023/10/09 02:31:21;;;;;;;0.20;0.20;;;14.30;99.90;;;;;;5006277;28;20060;-73
2023/10/09 02:33:50;;;;;;;0.10;0.10;;;14.30;99.90;;;;;;5007776;28;20046;-73
2023/10/09 02:36:16;;;;;;;0.52;0.52;;;14.30;99.90;;;;;;5009183;28;20056;-73
2023/10/09 02:38:43;;;;;;;0.10;0.10;;;14.30;99.90;;;;;;5007348;28;20059;-73
2023/10/09 02:43:47;;;;;;;0.15;0.15;;;14.30;99.90;;;;;;5023150;28;20296;-73
2023/10/09 02:46:18;;;;;;;0.20;0.20;;;14.30;99.90;;;;;;5009730;28;20137;-73
2023/10/09 02:48:51;;;;;;;0.20;0.20;;;14.30;99.90;;;;;;5006788;28;20072;-73
2023/10/09 02:53:52;;;;;;;0.10;0.10;;;14.30;99.90;;;;;;5020698;28;20131;-73
2023/10/09 02:56:24;;;;;;;0.20;0.20;;;14.30;99.90;;;;;;5009345;28;20477;-72
2023/10/09 02:58:53;;;;;;;;;;;14.30;99.90;;;;;;5011256;28;20054;-72
2023/10/09 03:01:19;;;;;;;0.10;0.10;;;14.30;99.90;;;;;;5009078;28;19921;-72
2023/10/09 03:03:48;;;;;;;0.10;0.10;;;14.30;99.90;;;;;;5010917;28;20501;-72
2023/10/09 03:06:24;;;;;;;0.10;0.10;;;14.30;99.90;;;;;;5010369;28;20393;-73
2023/10/09 03:08:50;;;;;;;0.20;0.20;;;14.30;99.90;;;;;;5012424;28;20041;-73
2023/10/09 03:11:16;;;;;;;0.10;0.10;;;14.30;99.90;;;;;;5012567;28;20103;-72
2023/10/09 03:13:44;;;;;;;0.10;0.10;;;14.40;99.90;;;;;;5013249;28;20044;-72
2023/10/09 03:16:18;;;;;;;0.10;0.10;;;14.40;99.90;;;;;;5012260;28;20045;-73
2023/10/09 03:18:49;;;;;;;0.10;0.10;;;14.40;99.90;;;;;;5031190;28;20414;-73
2023/10/09 03:21:15;;;;;;;0.20;0.20;;;14.40;99.90;;;;;;5013544;28;20049;-72
2023/10/09 03:23:49;;;;;;;0.10;0.10;;;14.40;99.90;;;;;;5013103;28;20041;-72
2023/10/09 03:26:17;;;;;;;0.20;0.20;;;14.40;99.90;;;;;;5013453;28;20136;-72
2023/10/09 03:28:45;;;;;;;0.20;0.20;;;14.40;99.90;;;;;;5013137;28;20397;-72
2023/10/09 03:31:11;;;;;;;0.20;0.20;;;14.50;99.90;;;;;;5012447;28;20045;-73
2023/10/09 03:33:38;;;;;;;0.20;0.20;;;14.50;99.90;;;;;;5013204;28;20049;-73
2023/10/09 03:36:07;;;;;;;0.20;0.20;;;14.50;99.90;;;;;;5012359;28;20488;-73
2023/10/09 03:38:34;;;;;;;0.10;0.10;;;14.60;99.90;;;;;;5011766;28;20049;-72
2023/10/09 03:41:05;;;;;;;0.20;0.20;;;14.60;99.90;;;;;;5030729;28;20056;-72
2023/10/09 03:43:39;;;;;;;;;;;14.60;99.90;;;;;;5012706;28;20095;-73
2023/10/09 03:46:12;;;;;;;0.20;0.20;;;14.60;99.90;;;;;;5011519;28;19921;-72
2023/10/09 03:48:38;;;;;;;0.20;0.20;;;14.70;99.90;;;;;;5030964;28;20397;-72
2023/10/09 03:51:11;;;;;;;0.20;0.20;;;14.70;99.90;;;;;;5009343;28;20048;-72
2023/10/09 03:53:39;;;;;;;0.17;0.17;;;14.70;99.90;;;;;;5005658;28;20053;-72
2023/10/09 03:56:11;;;;;;;0.20;0.20;;;14.80;99.90;;;;;;5010848;28;20199;-72
2023/10/09 03:58:45;;;;;;;0.10;0.10;;;14.80;99.90;;;;;;5009431;28;20120;-72
2023/10/09 04:04:00;;;;;;;0.20;0.20;;;14.90;99.90;;;;;;5018943;28;20057;-72
2023/10/09 04:06:33;;;;;;;0.10;0.10;;;14.90;99.90;;;;;;5011651;28;20128;-72
2023/10/09 04:12:12;;;;;;;0.20;0.20;;;14.90;99.90;;;;;;5026081;28;20124;-72
2023/10/09 04:14:54;;;;;;;0.13;0.13;;;15.00;99.90;;;;;;5008250;28;20091;-72
2023/10/09 04:17:33;;;;;;;0.20;0.20;;;15.00;99.90;;;;;;5010188;28;20068;-73
2023/10/09 04:22:50;;;;;;;0.20;0.20;;;15.10;99.90;;;;;;5012215;28;20049;-73
2023/10/09 04:25:25;;;;;;;0.20;0.20;;;15.10;99.90;;;;;;5012976;28;20053;-72
2023/10/09 04:30:43;;;;;;;0.17;0.17;;;15.20;99.90;;;;;;5010529;28;20049;-73
2023/10/09 04:36:45;;;;;;;0.20;0.20;;;15.20;99.90;;;;;;5011751;28;20057;-73
2023/10/09 04:39:14;;;;;;;0.10;0.10;;;15.30;99.90;;;;;;5007465;28;20057;-73
2023/10/09 04:44:24;;;;;;;0.20;0.20;;;15.40;99.90;;;;;;5028504;28;20064;-73
2023/10/09 04:55:16;;;;;;;0.13;0.13;;;15.50;99.90;;;;;;5006665;28;20448;-74
2023/10/09 05:02:54;;;;;;;0.20;0.20;;;15.50;99.90;;;;;;5010491;28;20125;-74
2023/10/09 05:13:42;;;;;;;0.20;0.20;;;15.60;99.90;;;;;;5023995;28;20497;-74
2023/10/09 05:16:13;;;;;;;0.20;0.20;;;15.70;99.90;;;;;;5004183;28;20073;-74
2023/10/09 05:18:39;;;;;;;0.20;0.20;;;15.70;99.90;;;;;;5011035;28;20559;-74
2023/10/09 05:23:48;;;;;;;0.20;0.20;;;15.70;99.90;;;;;;5026635;28;20497;-74
2023/10/09 05:27:17;;;;;;;0.10;0.10;;;15.80;99.90;;;;;;5011369;28;20046;-74
2023/10/09 05:29:59;;;;;;;0.20;0.20;;;15.80;99.90;;;;;;4993671;28;20061;-74
2023/10/09 05:31:56;;;;;;;0.20;0.20;;;15.80;99.90;;;;;;5001179;28;20091;-74
2023/10/09 05:34:22;;;;;;;0.20;0.20;;;15.80;99.90;;;;;;5009862;28;20464;-74
2023/10/09 05:36:49;;;;;;;0.10;0.10;;;15.80;99.90;;;;;;5009882;28;20500;-75
2023/10/09 05:39:40;;;;;;;0.10;0.10;;;15.80;99.90;;;;;;5010809;28;20038;-74
2023/10/09 05:42:18;;;;;;;;;;;15.80;99.90;;;;;;5009800;28;20077;-74
2023/10/09 05:46:06;;;;;;;0.10;0.10;;;15.80;99.90;;;;;;5007794;28;20285;-74
2023/10/09 05:47:54;;;;;;;0.10;0.10;;;15.80;99.90;;;;;;5010016;28;20115;-75
2023/10/09 06:09:10;;;;;;;0.13;0.13;;;15.90;99.90;;;;;;5028129;28;20049;-74
2023/10/09 06:16:41;;;;;;;0.20;0.20;;;15.90;99.90;;;;;;5023939;28;20053;-74
2023/10/09 06:19:12;;;;;;;0.20;0.20;;;15.90;99.90;;;;;;5027119;28;20069;-75
2023/10/09 06:24:42;;;;;;;0.20;0.20;;;16.00;99.90;;;;;;5001853;28;20516;-74
2023/10/09 06:34:45;;;;;;;0.20;0.20;;;16.00;99.90;;;;;;5010013;28;20103;-74
2023/10/09 06:39:50;;;;;;;0.20;0.20;;;16.10;99.90;;;;;;5009730;28;20111;-74
2023/10/09 06:47:53;;;;;;;0.20;0.20;;;16.10;99.90;;;;;;5014465;28;20065;-75
2023/10/09 06:52:57;;;;;;;0.10;0.10;;;16.10;99.90;;;;;;5011645;28;20496;-74
2023/10/09 06:55:48;;;;;;;0.20;0.20;;;16.10;99.90;;;;;;5012448;28;20174;-74
2023/10/09 06:58:25;;;;;;;0.20;0.20;;;16.10;99.90;;;;;;5010600;28;20049;-74
2023/10/09 07:03:35;;;;;;;0.10;0.10;;;16.10;99.90;;;;;;5012917;28;20366;-76
2023/10/09 07:06:23;;;;;;;0.13;0.13;;;16.10;99.90;;;;;;5031083;28;20056;-76
2023/10/09 07:09:42;;;;;;;0.10;0.10;;;16.20;99.90;;;;;;5013099;28;20052;-76
2023/10/09 07:24:57;;;;;;;0.10;0.10;;;16.20;99.90;;;;;;5028103;28;20103;-76
2023/10/09 07:33:52;;;;;;;0.20;0.20;;;16.30;99.90;;;;;;5011470;28;20049;-76
2023/10/09 07:36:07;;;;;;;0.20;0.20;;;16.30;99.90;;;;;;5010727;28;21243;-76
2023/10/09 07:38:36;;;;;;;0.20;0.20;;;16.30;99.90;;;;;;5010568;28;20168;-76
2023/10/09 07:43:39;;;;;;;0.20;0.20;;;16.30;99.90;;;;;;5028251;28;20613;-82
2023/10/09 07:49:00;;;;;;;0.20;0.20;;;16.30;99.90;;;;;;5012671;28;20051;-76
2023/10/09 07:51:32;;;;;;;0.20;0.20;;;16.30;99.90;;;;;;5012978;28;20046;-77
2023/10/09 07:54:08;;;;;;;0.20;0.20;;;16.30;99.90;;;;;;5012219;28;20069;-76
2023/10/09 07:56:41;;;;;;;0.17;0.17;;;16.30;99.90;;;;;;5007655;28;20045;-76
2023/10/09 07:59:13;;;;;;;0.20;0.20;;;16.40;99.90;;;;;;5008656;28;20033;-76
2023/10/09 08:01:53;;;;;;;0.20;0.20;;;16.40;99.90;;;;;;5007929;28;20045;-76
2023/10/09 08:04:39;;;;;;;0.15;0.15;;;16.40;99.90;;;;;;5028728;28;20095;-76
2023/10/09 08:07:10;;;;;;;0.20;0.20;;;16.40;99.90;;;;;;5012496;28;20041;-76
2023/10/09 08:11:35;;;;;;;0.20;0.20;;;16.40;99.90;;;;;;5012050;28;20042;-76
2023/10/09 08:17:56;;;;;;;0.10;0.10;;;16.40;99.90;;;;;;5013768;28;20107;-76
2023/10/09 08:23:28;;;;;;;0.10;0.10;;;16.40;99.90;;;;;;5006476;28;20055;-77
2023/10/09 08:26:13;;;;;;;0.20;0.20;;;16.40;99.90;;;;;;5006444;28;20056;-76
2023/10/09 08:28:43;;;;;;;0.10;0.10;;;16.40;99.90;;;;;;5010813;28;20041;-76
2023/10/09 08:31:34;;;;;;;0.20;0.20;;;16.40;99.90;;;;;;5012413;28;20421;-76
2023/10/09 08:34:01;;;;;;;0.20;0.20;;;16.40;99.90;;;;;;5012825;28;20401;-76
2023/10/09 08:36:36;;;;;;;0.20;0.20;;;16.50;99.90;;;;;;5007600;28;20114;-77
2023/10/09 08:39:17;;;;;;;0.10;0.10;;;16.40;99.90;;;;;;5025000;28;20445;-76
2023/10/09 08:41:43;;;;;;;0.20;0.20;;;16.50;99.90;;;;;;5009417;28;20053;-76
2023/10/09 08:44:14;;;;;;;0.10;0.10;;;16.50;99.90;;;;;;5012768;28;20068;-76
2023/10/09 08:46:42;;;;;;;0.13;0.13;;;16.50;99.90;;;;;;5011264;28;20049;-75
2023/10/09 08:49:10;;;;;;;0.10;0.10;;;16.50;99.90;;;;;;5012123;28;20045;-76
2023/10/09 08:51:37;;;;;;;0.10;0.10;;;16.50;99.90;;;;;;5010426;28;20056;-77
2023/10/09 08:54:04;;;;;;;0.10;0.10;;;16.60;99.90;;;;;;5010320;28;20062;-76
2023/10/09 08:56:30;;;;;;;0.20;0.20;;;16.60;99.90;;;;;;5011856;28;20044;-76
2023/10/09 08:58:59;;;;;;;0.20;0.20;;;16.50;99.90;;;;;;5008724;28;20175;-76
2023/10/09 09:01:25;;;;;;;0.20;0.20;;;16.60;99.90;;;;;;5027555;28;20136;-76
2023/10/09 09:03:55;;;;;;;0.20;0.20;;;16.60;99.90;;;;;;5010662;28;20053;-76
2023/10/09 09:06:21;;;;;;;0.20;0.20;;;16.60;99.90;;;;;;5007706;28;20045;-76
2023/10/09 09:08:47;;;;;;;0.10;0.10;;;16.70;99.90;;;;;;5011560;28;20496;-76
2023/10/09 09:13:50;;;;;;;0.15;0.15;;;16.70;99.90;;;;;;5012160;28;20045;-76
2023/10/09 09:16:29;;;;;;;0.13;0.13;;;16.80;99.90;;;;;;5008948;28;20045;-76
2023/10/09 09:19:04;;;;;;;0.10;0.10;;;16.80;99.90;;;;;;5008930;28;20410;-77
2023/10/09 09:21:38;;;;;;;0.20;0.20;;;16.80;99.90;;;;;;5006547;28;20053;-76
2023/10/09 09:26:59;;;;;;;0.20;0.20;;;16.80;99.90;;;;;;5010002;28;20389;-76
2023/10/09 09:29:54;;;;;;;0.10;0.10;;;16.90;99.90;;;;;;5011690;28;20045;-76
2023/10/09 09:32:35;;;;;;;0.20;0.20;;;16.90;99.90;;;;;;5024933;28;20608;-79
2023/10/09 09:35:04;;;;;;;0.20;0.20;;;16.90;99.90;;;;;;5010734;28;20327;-75
2023/10/09 09:38:17;;;;;;;0.20;0.20;;;17.00;99.90;;;;;;5010745;28;20095;-75
2023/10/09 09:40:29;;;;;;;0.10;0.10;;;17.00;99.90;;;;;;5000107;28;20050;-76
2023/10/09 09:43:06;;;;;;;0.20;0.20;;;17.00;99.90;;;;;;5021227;28;20089;-77
2023/10/09 09:45:36;;;;;;;0.20;0.20;;;17.00;99.90;;;;;;5012334;28;20052;-77
2023/10/09 09:48:10;;;;;;;0.15;0.15;;;17.00;99.90;;;;;;5011632;28;20041;-76
2023/10/09 09:50:47;;;;;;;0.17;0.17;;;17.00;99.90;;;;;;5007590;28;20049;-77
2023/10/09 09:53:17;;;;;;;0.20;0.20;;;17.10;99.90;;;;;;5006862;28;20050;-76
2023/10/09 09:55:57;;;;;;;0.20;0.20;;;17.10;99.90;;;;;;5013388;28;20041;-76
2023/10/09 09:58:24;;;;;;;0.20;0.20;;;17.10;99.90;;;;;;5007279;28;20053;-77
2023/10/09 10:00:59;;;;;;;0.20;0.20;;;17.10;99.90;;;;;;5008036;28;20132;-76
2023/10/09 10:03:37;;;;;;;0.20;0.20;;;17.10;99.90;;;;;;5008802;28;20041;-77
2023/10/09 10:06:09;;;;;;;0.20;0.20;;;17.10;99.90;;;;;;5008870;28;20049;-76
2023/10/09 10:08:39;;;;;;;0.20;0.20;;;17.10;99.90;;;;;;5010395;28;20489;-77
2023/10/09 10:11:05;;;;;;;0.20;0.20;;;17.10;99.90;;;;;;5006419;28;20274;-76
2023/10/09 10:13:46;;;;;;;0.20;0.20;;;17.10;99.90;;;;;;5009817;28;20485;-77
2023/10/09 10:18:59;;;;;;;0.20;0.20;;;17.10;99.90;;;;;;5015133;28;20520;-77
2023/10/09 10:24:05;;;;;;;0.20;0.20;;;17.10;99.90;;;;;;5014661;28;19925;-77
2023/10/09 10:26:34;;;;;;;0.20;0.20;;;17.10;99.90;;;;;;5010876;28;20116;-77
2023/10/09 10:29:34;;;;;;;0.20;0.20;;;17.10;99.90;;;;;;5014331;28;20481;-77
2023/10/09 10:32:10;;;;;;;0.10;0.10;;;17.10;99.90;;;;;;5009821;28;20052;-76
2023/10/09 10:34:55;;;;;;;0.13;0.13;;;17.10;99.90;;;;;;5011230;28;20054;-76
2023/10/09 10:37:50;;;;;;;0.10;0.10;;;17.10;99.90;;;;;;5010748;28;20072;-77
2023/10/09 10:44:33;;;;;;;0.20;0.20;;;17.20;99.90;;;;;;5009839;28;20255;-77
2023/10/09 10:46:13;;;;;;;0.13;0.13;;;17.20;99.90;;;;;;5012553;28;20059;-77
2023/10/09 10:48:40;;;;;;;0.20;0.20;;;17.20;99.90;;;;;;5015202;28;20075;-77
2023/10/09 10:51:06;;;;;;;0.15;0.15;;;17.20;99.90;;;;;;5014848;28;20076;-76
2023/10/09 10:53:47;;;;;;;0.20;0.20;;;17.20;99.90;;;;;;5013105;28;20486;-77
2023/10/09 11:01:26;;;;;;;0.20;0.20;;;17.10;99.90;;;;;;5024595;28;20046;-77
2023/10/09 11:03:55;;;;;;;0.20;0.20;;;17.10;99.90;;;;;;5030483;28;20059;-77
2023/10/09 11:06:37;;;;;;;0.20;0.20;;;17.10;99.90;;;;;;5011966;28;20436;-76
2023/10/09 11:09:35;;;;;;;0.13;0.13;;;17.20;99.90;;;;;;5012155;28;20087;-77
2023/10/09 11:12:02;;;;;;;0.20;0.20;;;17.10;99.90;;;;;;5012721;28;20041;-77
2023/10/09 11:14:44;;;;;;;0.20;0.20;;;17.10;99.90;;;;;;4995305;28;20172;-77
2023/10/09 11:17:25;;;;;;;0.20;0.20;;;17.20;99.90;;;;;;5013747;28;20098;-77
2023/10/09 11:19:52;;;;;;;0.10;0.10;;;17.10;99.90;;;;;;5013779;28;20041;-78
2023/10/09 11:22:36;;;;;;;0.20;0.20;;;17.10;99.90;;;;;;5010305;28;20064;-77
2023/10/09 11:25:11;;;;;;;0.20;0.20;;;17.10;99.90;;;;;;5031111;28;20045;-76
2023/10/09 11:27:39;;;;;;;0.20;0.20;;;17.10;99.90;;;;;;5031581;28;20152;-75
2023/10/09 11:30:21;;;;;;;0.20;0.20;;;17.10;99.90;;;;;;5012455;28;20164;-78
2023/10/09 11:32:49;;;;;;;0.20;0.20;;;17.20;99.90;;;;;;5013982;28;20053;-78
2023/10/09 11:35:27;;;;;;;0.20;0.20;;;17.20;99.90;;;;;;5019103;28;20049;-78
2023/10/09 11:37:56;;;;;;;0.20;0.20;;;17.30;99.90;;;;;;5031497;28;20452;-77
2023/10/09 11:41:06;;;;;;;0.20;0.20;;;17.30;99.90;;;;;;5014370;28;20762;-77
2023/10/09 11:43:51;;;;;;;0.20;0.20;;;17.40;99.90;;;;;;5012995;28;20060;-77
2023/10/09 11:46:36;;;;;;;0.20;0.20;;;17.40;99.90;;;;;;5013229;28;20099;-77
2023/10/09 11:49:26;;;;;;;0.20;0.20;;;17.40;99.90;;;;;;5012217;28;20047;-78
2023/10/09 11:52:35;;;;;;;0.20;0.20;;;17.50;99.90;;;;;;5031930;28;20049;-79
2023/10/09 11:54:49;;;;;;;0.20;0.20;;;17.50;99.90;;;;;;5013318;28;20057;-78
2023/10/09 11:57:16;;;;;;;0.20;0.20;;;17.50;99.90;;;;;;5012867;28;20068;-78
2023/10/09 11:59:43;;;;;;;0.20;0.20;;;17.60;99.90;;;;;;5030471;28;20401;-77
2023/10/09 12:02:13;;;;;;;0.10;0.10;;;17.60;99.90;;;;;;5006917;28;20061;-77
2023/10/09 12:04:41;;;;;;;0.20;0.20;;;17.50;99.90;;;;;;5015143;28;20501;-76
2023/10/09 12:07:10;;;;;;;0.20;0.20;;;17.50;99.90;;;;;;5013633;28;20133;-76
2023/10/09 12:09:39;;;;;;;0.20;0.20;;;17.60;99.90;;;;;;5016342;28;20103;-76
2023/10/09 12:12:07;;;;;;;0.10;0.10;;;17.60;99.90;;;;;;5008550;28;20451;-77
2023/10/09 12:14:33;;;;;;;0.20;0.20;;;17.60;99.90;;;;;;5003306;28;20116;-77
2023/10/09 12:17:05;;;;;;;0.20;0.20;;;17.60;99.90;;;;;;5012930;28;20338;-77
2023/10/09 12:19:33;;;;;;;0.20;0.20;;;17.60;99.90;;;;;;5009798;28;20041;-77
2023/10/09 12:22:00;;;;;;;0.20;0.20;;;17.50;99.90;;;;;;5007076;28;20069;-78
2023/10/09 12:24:27;;;;;;;0.20;0.20;;;17.50;99.90;;;;;;5010859;28;20076;-77
2023/10/09 12:26:53;;;;;;;0.10;0.10;;;17.50;99.90;;;;;;5012727;28;20049;-77
2023/10/09 12:29:19;;;;;;;0.20;0.20;;;17.50;99.90;;;;;;5003754;28;20292;-78
2023/10/09 12:31:45;;;;;;;0.20;0.20;;;17.50;99.90;;;;;;5011345;28;20052;-77
2023/10/09 12:34:16;;;;;;;0.20;0.20;;;17.60;99.90;;;;;;5013475;28;20468;-77
2023/10/09 12:36:45;;;;;;;0.20;0.20;;;17.60;99.90;;;;;;5014134;28;20049;-77
2023/10/09 12:39:18;;;;;;;0.20;0.20;;;17.70;99.90;;;;;;5013290;28;20055;-78
2023/10/09 12:41:48;;;;;;;0.20;0.20;;;17.70;99.90;;;;;;5010408;28;20480;-77
2023/10/09 12:44:22;;;;;;;0.20;0.20;;;17.70;99.90;;;;;;5009232;28;20045;-77
2023/10/09 12:46:53;;;;;;;0.20;0.20;;;17.70;99.90;;;;;;5012038;28;20722;-77
2023/10/09 12:49:25;;;;;;;0.20;0.20;;;17.70;99.90;;;;;;5011668;28;20031;-77
2023/10/09 12:51:52;;;;;;;0.20;0.20;;;17.70;99.90;;;;;;5012613;28;20049;-77
2023/10/09 12:54:20;;;;;;;0.10;0.10;;;17.70;99.90;;;;;;5009285;28;20054;-77
2023/10/09 12:56:48;;;;;;;0.20;0.20;;;17.70;99.90;;;;;;5007747;28;20313;-76
2023/10/09 12:59:14;;;;;;;0.20;0.20;;;17.70;99.90;;;;;;5010946;28;20061;-77
2023/10/09 13:01:44;;;;;;;0.20;0.20;;;17.70;99.90;;;;;;5003862;28;20128;-77
2023/10/09 13:04:16;;;;;;;0.20;0.20;;;17.20;99.90;;;;;;5010937;28;20042;-77
2023/10/09 13:06:45;;;;;;;0.20;0.20;;;17.70;99.90;;;;;;5010574;28;20132;-78
2023/10/09 13:09:13;;;;;;;0.10;0.10;;;17.60;99.90;;;;;;5012574;28;20515;-78
2023/10/09 13:11:42;;;;;;;0.20;0.20;;;17.60;99.90;;;;;;5011489;28;20045;-77
2023/10/09 13:14:16;;;;;;;0.20;0.20;;;17.60;99.90;;;;;;5008621;28;20507;-78
2023/10/09 13:16:45;;;;;;;0.10;0.10;;;17.60;99.90;;;;;;5013338;28;20045;-75
2023/10/09 13:19:10;;;;;;;0.20;0.20;;;17.50;99.90;;;;;;5010704;28;20055;-76
2023/10/09 13:21:40;;;;;;;0.20;0.20;;;17.50;99.90;;;;;;5006778;28;20422;-76
2023/10/09 13:24:12;;;;;;;0.20;0.20;;;17.50;99.90;;;;;;5009970;28;20045;-76
2023/10/09 13:26:39;;;;;;;0.20;0.20;;;17.50;99.90;;;;;;5011778;28;20053;-76
2023/10/09 13:29:09;;;;;;;0.20;0.20;;;17.50;99.90;;;;;;5010648;28;20121;-75
2023/10/09 13:31:37;;;;;;;0.10;0.10;;;17.40;99.90;;;;;;5008395;28;20060;-75
2023/10/09 13:34:06;;;;;;;0.17;0.17;;;17.40;99.90;;;;;;5010021;28;20124;-76
2023/10/09 13:36:33;;;;;;;0.20;0.20;;;17.40;99.90;;;;;;5027460;28;20038;-75
2023/10/09 13:41:49;;;;;;;0.20;0.20;;;17.30;99.90;;;;;;5006572;28;20100;-75
2023/10/09 13:44:15;;;;;;;0.20;0.20;;;17.40;99.90;;;;;;5011800;28;20073;-75
2023/10/09 13:46:41;;;;;;;0.20;0.20;;;17.30;99.90;;;;;;5010901;28;20045;-77
2023/10/09 13:49:12;;;;;;;0.20;0.20;;;17.30;99.90;;;;;;5026045;28;20064;-75
2023/10/09 13:51:43;;;;;;;0.20;0.20;;;17.40;99.90;;;;;;5013396;28;20041;-75
2023/10/09 13:54:10;;;;;;;0.20;0.20;;;17.30;99.90;;;;;;5007235;28;20050;-75
2023/10/09 13:56:39;;;;;;;0.20;0.20;;;17.30;99.90;;;;;;5000656;28;20050;-75
2023/10/09 13:59:11;;;;;;;0.20;0.20;;;17.30;99.90;;;;;;5029179;28;20056;-76
2023/10/09 14:01:38;;;;;;;0.20;0.20;;;17.30;99.90;;;;;;5010786;28;20136;-75
2023/10/09 14:04:07;;;;;;;0.20;0.20;;;17.20;99.90;;;;;;5006939;28;20045;-75
2023/10/09 14:06:33;;;;;;;0.20;0.20;;;17.20;99.90;;;;;;5005207;28;20049;-75
2023/10/09 14:09:09;;;;;;;0.20;0.20;;;17.20;99.90;;;;;;5010376;28;20087;-75
2023/10/09 14:11:39;;;;;;;0.20;0.20;;;17.10;99.90;;;;;;5011804;28;20077;-75
2023/10/09 14:14:09;;;;;;;0.20;0.20;;;17.10;99.90;;;;;;5008966;28;20046;-75
2023/10/09 14:16:36;;;;;;;0.20;0.20;;;17.10;99.90;;;;;;5026560;28;20498;-75
2023/10/09 14:19:07;;;;;;;0.10;0.10;;;17.10;99.90;;;;;;5011063;28;20114;-75
2023/10/09 14:21:37;;;;;;;0.20;0.20;;;17.10;99.90;;;;;;5009315;28;20056;-75
2023/10/09 14:24:04;;;;;;;0.20;0.20;;;17.20;99.90;;;;;;5010638;28;20046;-74
2023/10/09 14:26:30;;;;;;;0.20;0.20;;;17.20;99.90;;;;;;5011029;28;20045;-75
2023/10/09 14:28:59;;;;;;;0.10;0.10;;;17.20;99.90;;;;;;5029148;28;20140;-76
2023/10/09 14:31:28;;;;;;;0.10;0.10;;;17.20;99.90;;;;;;5009874;28;20464;-75
2023/10/09 14:33:57;;;;;;;0.20;0.20;;;17.20;99.90;;;;;;5006595;28;20041;-76
2023/10/09 14:36:25;;;;;;;0.20;0.20;;;17.30;99.90;;;;;;5028812;28;20046;-76
2023/10/09 14:38:55;;;;;;;0.10;0.10;;;17.30;99.90;;;;;;5010718;28;20045;-75
2023/10/09 14:41:25;;;;;;;0.10;0.10;;;17.30;99.90;;;;;;5011345;28;20046;-76
2023/10/09 14:43:52;;;;;;;0.20;0.20;;;17.30;99.90;;;;;;5010329;28;20054;-75
2023/10/09 14:46:28;;;;;;;0.10;0.10;;;17.30;99.90;;;;;;5017968;28;20049;-75
2023/10/09 14:48:54;;;;;;;0.20;0.20;;;17.30;99.90;;;;;;5011514;28;20112;-75
2023/10/09 14:51:27;;;;;;;0.17;0.17;;;17.30;99.90;;;;;;5010592;28;20065;-75
2023/10/09 14:54:03;;;;;;;0.20;0.20;;;17.30;99.90;;;;;;5005349;28;20501;-75
2023/10/09 14:56:29;;;;;;;0.20;0.20;;;17.30;99.90;;;;;;5009422;28;20144;-75
2023/10/09 14:58:59;;;;;;;0.13;0.13;;;17.30;99.90;;;;;;5010891;28;20049;-75
2023/10/09 15:01:29;;;;;;;0.20;0.20;;;17.30;99.90;;;;;;5012115;28;20049;-75
2023/10/09 15:03:59;;;;;;;0.20;0.20;;;17.30;99.90;;;;;;5026541;28;20049;-75
2023/10/09 15:06:30;;;;;;;0.20;0.20;;;17.30;99.90;;;;;;5029063;28;20500;-76
2023/10/09 15:09:07;;;;;;;0.20;0.20;;;17.30;99.90;;;;;;5012899;28;20053;-75
2023/10/09 15:11:34;;;;;;;0.20;0.20;;;17.30;99.90;;;;;;5012360;28;20060;-75
2023/10/09 15:14:00;;;;;;;0.15;0.15;;;17.20;99.90;;;;;;5014098;28;20485;-75
2023/10/09 15:16:26;;;;;;;0.20;0.20;;;17.20;99.90;;;;;;5014135;28;20041;-75
2023/10/09 15:18:57;;;;;;;0.20;0.20;;;17.20;99.90;;;;;;5031013;28;20046;-75
2023/10/09 15:21:26;;;;;;;0.20;0.20;;;17.20;99.90;;;;;;5013620;28;20049;-75
2023/10/09 15:23:55;;;;;;;0.20;0.20;;;17.20;99.90;;;;;;5014649;28;20501;-75
2023/10/09 15:26:24;;;;;;;0.20;0.20;;;17.20;99.90;;;;;;5014659;28;20132;-75
2023/10/09 15:28:50;;;;;;;0.20;0.20;;;17.30;99.90;;;;;;5013546;28;20065;-74
2023/10/09 15:31:16;;;;;;;0.20;0.20;;;17.30;99.90;;;;;;5015129;28;20091;-75
2023/10/09 15:33:42;;;;;;;0.20;0.20;;;17.30;99.90;;;;;;5014282;28;20831;-75
2023/10/09 15:36:13;;;;;;;0.20;0.20;;;17.30;99.90;;;;;;5013510;28;20081;-75
2023/10/09 15:38:39;;;;;;;0.20;0.20;;;17.30;99.90;;;;;;5012167;28;20041;-75
2023/10/09 15:41:08;;;;;;;0.20;0.20;;;17.30;99.90;;;;;;5016772;28;20055;-75
2023/10/09 15:43:35;;;;;;;0.20;0.20;;;17.30;99.90;;;;;;5016383;28;20080;-75
2023/10/09 15:46:01;;;;;;;0.20;0.20;;;17.30;99.90;;;;;;5016689;28;20128;-75
2023/10/09 15:48:27;;;;;;;0.20;0.20;;;17.30;99.90;;;;;;5012722;28;20190;-75
2023/10/09 15:50:53;;;;;;;0.20;0.20;;;17.30;99.90;;;;;;5014229;28;20037;-75
2023/10/09 15:53:21;;;;;;;0.10;0.10;;;17.20;99.90;;;;;;5031517;28;20589;-75
2023/10/09 15:55:51;;;;;;;0.10;0.10;;;17.20;99.90;;;;;;5031389;28;20145;-75
2023/10/09 15:58:17;;;;;;;0.20;0.20;;;17.10;99.90;;;;;;5010193;28;20497;-75
2023/10/09 16:00:46;;;;;;;0.15;0.15;;;17.10;99.90;;;;;;5030525;28;20077;-74
2023/10/09 16:03:13;;;;;;;0.10;0.10;;;17.10;99.90;;;;;;5014330;28;20056;-86
2023/10/09 16:05:40;;;;;;;0.20;0.20;;;17.00;99.90;;;;;;4997776;28;20045;-86
2023/10/09 16:08:08;;;;;;;0.10;0.10;;;17.00;99.90;;;;;;5008888;28;23771;-86
2023/10/09 16:10:34;;;;;;;0.20;0.20;;;17.00;99.90;;;;;;5010520;28;20268;-86